sensor_id;sensor_type;location;lat;lon;timestamp;pressure;altitude;pressure_sealevel;temperature;humidity
11395;BME280;5753;54.402;10.220;2022-09-17T00:02:05;100304.06;;;22.47;48.34
11395;BME280;5753;54.402;10.220;2022-09-17T00:04:32;100296.03;;;22.72;47.93
11395;BME280;5753;54.402;10.220;2022-09-17T00:06:58;100296.91;;;22.51;47.74
11395;BME280;5753;54.402;10.220;2022-09-17T00:09:25;100301.97;;;23.16;46.59
11395;BME280;5753;54.402;10.220;2022-09-17T00:11:51;100296.03;;;22.92;46.80
11395;BME280;5753;54.402;10.220;2022-09-17T00:14:17;100296.28;;;23.07;46.98
11395;BME280;5753;54.402;10.220;2022-09-17T00:16:45;100297.75;;;23.33;46.32
11395;BME280;5753;54.402;10.220;2022-09-17T00:19:16;100302.97;;;23.14;46.66
11395;BME280;5753;54.402;10.220;2022-09-17T00:21:43;100310.25;;;22.67;47.07
11395;BME280;5753;54.402;10.220;2022-09-17T00:24:10;100299.88;;;21.99;48.42
11395;BME280;5753;54.402;10.220;2022-09-17T00:26:37;100305.38;;;22.37;47.99
11395;BME280;5753;54.402;10.220;2022-09-17T00:29:04;100300.88;;;23.41;45.69
11395;BME280;5753;54.402;10.220;2022-09-17T00:31:31;100307.00;;;23.98;44.15
11395;BME280;5753;54.402;10.220;2022-09-17T00:33:58;100306.41;;;24.10;43.79
11395;BME280;5753;54.402;10.220;2022-09-17T00:36:25;100303.88;;;23.90;44.29
11395;BME280;5753;54.402;10.220;2022-09-17T00:38:53;100304.94;;;23.48;44.99
11395;BME280;5753;54.402;10.220;2022-09-17T00:41:21;100316.53;;;22.84;45.97
11395;BME280;5753;54.402;10.220;2022-09-17T00:44:01;100308.22;;;23.14;45.96
11395;BME280;5753;54.402;10.220;2022-09-17T00:46:32;100313.97;;;23.42;44.71
11395;BME280;5753;54.402;10.220;2022-09-17T00:49:06;100310.81;;;22.75;46.19
11395;BME280;5753;54.402;10.220;2022-09-17T00:51:39;100310.25;;;22.46;47.01
11395;BME280;5753;54.402;10.220;2022-09-17T00:54:08;100313.97;;;22.19;47.35
11395;BME280;5753;54.402;10.220;2022-09-17T00:56:37;100315.06;;;22.77;46.12
11395;BME280;5753;54.402;10.220;2022-09-17T00:59:04;100320.91;;;23.04;45.94
11395;BME280;5753;54.402;10.220;2022-09-17T01:01:30;100313.84;;;23.64;44.36
11395;BME280;5753;54.402;10.220;2022-09-17T01:03:57;100313.25;;;23.95;43.23
11395;BME280;5753;54.402;10.220;2022-09-17T01:17:47;100310.03;;;23.51;44.61
11395;BME280;5753;54.402;10.220;2022-09-17T01:28:57;100315.09;;;22.55;46.45
11395;BME280;5753;54.402;10.220;2022-09-17T01:34:23;100309.19;;;24.07;42.67
11395;BME280;5753;54.402;10.220;2022-09-17T01:37:07;100316.81;;;24.13;42.80
11395;BME280;5753;54.402;10.220;2022-09-17T01:39:50;100324.25;;;23.67;43.85
11395;BME280;5753;54.402;10.220;2022-09-17T01:45:54;100321.56;;;23.48;43.95
11395;BME280;5753;54.402;10.220;2022-09-17T01:48:14;100322.91;;;24.32;42.42
11395;BME280;5753;54.402;10.220;2022-09-17T01:53:15;100327.09;;;23.81;43.39
11395;BME280;5753;54.402;10.220;2022-09-17T01:55:45;100321.28;;;23.36;43.94
11395;BME280;5753;54.402;10.220;2022-09-17T01:58:28;100320.94;;;22.84;45.04
11395;BME280;5753;54.402;10.220;2022-09-17T02:01:01;100325.59;;;23.76;43.39
11395;BME280;5753;54.402;10.220;2022-09-17T02:08:44;100324.78;;;23.93;43.44
11395;BME280;5753;54.402;10.220;2022-09-17T02:11:13;100326.75;;;23.50;43.77
11395;BME280;5753;54.402;10.220;2022-09-17T02:13:57;100323.19;;;24.26;42.41
11395;BME280;5753;54.402;10.220;2022-09-17T02:16:29;100331.09;;;24.07;42.84
11395;BME280;5753;54.402;10.220;2022-09-17T02:19:26;100319.78;;;23.69;43.56
11395;BME280;5753;54.402;10.220;2022-09-17T02:25:07;100324.69;;;23.77;43.21
11395;BME280;5753;54.402;10.220;2022-09-17T02:28:07;100325.69;;;23.35;44.39
11395;BME280;5753;54.402;10.220;2022-09-17T02:30:36;100321.56;;;23.09;44.61
11395;BME280;5753;54.402;10.220;2022-09-17T02:33:05;100327.22;;;23.00;44.87
11395;BME280;5753;54.402;10.220;2022-09-17T02:35:33;100325.38;;;23.02;44.93
11395;BME280;5753;54.402;10.220;2022-09-17T02:38:00;100332.28;;;23.05;44.51
11395;BME280;5753;54.402;10.220;2022-09-17T02:40:30;100317.31;;;23.65;43.13
11395;BME280;5753;54.402;10.220;2022-09-17T02:43:10;100317.66;;;23.38;43.17
11395;BME280;5753;54.402;10.220;2022-09-17T02:51:33;100311.66;;;24.10;42.25
11395;BME280;5753;54.402;10.220;2022-09-17T02:54:28;100323.25;;;23.89;42.16
11395;BME280;5753;54.402;10.220;2022-09-17T02:57:14;100317.53;;;23.60;42.54
11395;BME280;5753;54.402;10.220;2022-09-17T03:00:13;100319.28;;;23.41;42.86
11395;BME280;5753;54.402;10.220;2022-09-17T03:02:50;100313.59;;;23.70;41.99
11395;BME280;5753;54.402;10.220;2022-09-17T03:05:20;100317.78;;;23.74;41.98
11395;BME280;5753;54.402;10.220;2022-09-17T03:07:47;100315.97;;;24.12;40.99
11395;BME280;5753;54.402;10.220;2022-09-17T03:10:13;100313.94;;;24.54;40.31
11395;BME280;5753;54.402;10.220;2022-09-17T03:12:41;100322.25;;;23.91;41.33
11395;BME280;5753;54.402;10.220;2022-09-17T03:15:08;100308.50;;;23.08;43.18
11395;BME280;5753;54.402;10.220;2022-09-17T03:17:34;100317.53;;;23.98;40.95
11395;BME280;5753;54.402;10.220;2022-09-17T03:20:00;100319.16;;;23.44;41.96
11395;BME280;5753;54.402;10.220;2022-09-17T03:22:26;100317.22;;;23.08;41.90
11395;BME280;5753;54.402;10.220;2022-09-17T03:24:52;100321.72;;;22.86;42.66
11395;BME280;5753;54.402;10.220;2022-09-17T03:27:18;100313.22;;;23.59;41.28
11395;BME280;5753;54.402;10.220;2022-09-17T03:29:44;100315.25;;;23.13;41.47
11395;BME280;5753;54.402;10.220;2022-09-17T03:32:10;100320.91;;;23.24;41.63
11395;BME280;5753;54.402;10.220;2022-09-17T03:34:37;100309.25;;;22.91;42.10
11395;BME280;5753;54.402;10.220;2022-09-17T03:37:03;100316.47;;;23.64;40.94
11395;BME280;5753;54.402;10.220;2022-09-17T03:39:29;100311.75;;;23.52;41.39
11395;BME280;5753;54.402;10.220;2022-09-17T03:41:55;100318.53;;;24.14;39.75
11395;BME280;5753;54.402;10.220;2022-09-17T03:44:21;100308.22;;;24.27;39.41
11395;BME280;5753;54.402;10.220;2022-09-17T03:46:49;100315.16;;;24.29;39.32
11395;BME280;5753;54.402;10.220;2022-09-17T03:49:15;100309.06;;;23.14;41.67
11395;BME280;5753;54.402;10.220;2022-09-17T03:51:41;100314.63;;;21.80;44.27
11395;BME280;5753;54.402;10.220;2022-09-17T03:54:07;100308.59;;;22.86;42.31
11395;BME280;5753;54.402;10.220;2022-09-17T03:56:34;100314.16;;;21.92;43.66
11395;BME280;5753;54.402;10.220;2022-09-17T03:59:00;100308.53;;;22.02;44.19
11395;BME280;5753;54.402;10.220;2022-09-17T04:01:27;100302.41;;;22.87;42.38
11395;BME280;5753;54.402;10.220;2022-09-17T04:03:54;100314.84;;;22.61;42.60
11395;BME280;5753;54.402;10.220;2022-09-17T04:06:20;100312.50;;;22.76;42.17
11395;BME280;5753;54.402;10.220;2022-09-17T04:08:46;100316.59;;;23.42;41.09
11395;BME280;5753;54.402;10.220;2022-09-17T04:11:12;100316.78;;;23.19;41.62
11395;BME280;5753;54.402;10.220;2022-09-17T04:13:39;100313.25;;;23.39;40.95
11395;BME280;5753;54.402;10.220;2022-09-17T04:16:05;100329.75;;;22.83;41.63
11395;BME280;5753;54.402;10.220;2022-09-17T04:18:31;100322.63;;;23.44;40.77
11395;BME280;5753;54.402;10.220;2022-09-17T04:20:57;100324.88;;;23.91;39.62
11395;BME280;5753;54.402;10.220;2022-09-17T04:23:23;100330.56;;;23.82;39.37
11395;BME280;5753;54.402;10.220;2022-09-17T04:25:49;100329.94;;;22.56;41.89
11395;BME280;5753;54.402;10.220;2022-09-17T04:28:16;100325.91;;;21.59;43.58
11395;BME280;5753;54.402;10.220;2022-09-17T04:30:42;100337.34;;;21.34;43.98
11395;BME280;5753;54.402;10.220;2022-09-17T04:33:08;100330.88;;;21.18;44.09
11395;BME280;5753;54.402;10.220;2022-09-17T04:35:35;100335.63;;;21.33;44.69
11395;BME280;5753;54.402;10.220;2022-09-17T04:38:01;100328.56;;;20.86;44.62
11395;BME280;5753;54.402;10.220;2022-09-17T04:40:27;100334.06;;;21.03;44.95
11395;BME280;5753;54.402;10.220;2022-09-17T04:42:55;100340.97;;;21.30;43.63
11395;BME280;5753;54.402;10.220;2022-09-17T04:45:22;100335.69;;;21.79;43.13
11395;BME280;5753;54.402;10.220;2022-09-17T04:47:48;100341.34;;;19.86;47.77
11395;BME280;5753;54.402;10.220;2022-09-17T04:50:17;100347.31;;;22.17;42.36
11395;BME280;5753;54.402;10.220;2022-09-17T04:52:43;100330.34;;;20.31;45.65
11395;BME280;5753;54.402;10.220;2022-09-17T04:55:09;100334.22;;;20.47;45.79
11395;BME280;5753;54.402;10.220;2022-09-17T04:57:37;100333.06;;;21.32;44.28
11395;BME280;5753;54.402;10.220;2022-09-17T05:00:05;100331.97;;;20.88;44.86
11395;BME280;5753;54.402;10.220;2022-09-17T05:02:35;100336.72;;;20.77;44.33
11395;BME280;5753;54.402;10.220;2022-09-17T05:05:01;100332.22;;;21.31;43.60
11395;BME280;5753;54.402;10.220;2022-09-17T05:07:27;100325.59;;;21.45;43.11
11395;BME280;5753;54.402;10.220;2022-09-17T05:09:54;100325.50;;;20.19;46.25
11395;BME280;5753;54.402;10.220;2022-09-17T05:12:20;100324.47;;;19.96;46.92
11395;BME280;5753;54.402;10.220;2022-09-17T05:14:46;100334.06;;;20.24;46.11
11395;BME280;5753;54.402;10.220;2022-09-17T05:17:12;100325.78;;;18.88;50.04
11395;BME280;5753;54.402;10.220;2022-09-17T05:19:39;100340.19;;;19.96;46.71
11395;BME280;5753;54.402;10.220;2022-09-17T05:22:05;100338.03;;;19.19;48.65
11395;BME280;5753;54.402;10.220;2022-09-17T05:24:31;100331.13;;;20.34;45.95
11395;BME280;5753;54.402;10.220;2022-09-17T05:26:58;100334.31;;;19.88;46.90
11395;BME280;5753;54.402;10.220;2022-09-17T05:29:24;100347.94;;;18.74;49.68
11395;BME280;5753;54.402;10.220;2022-09-17T05:31:50;100342.38;;;19.80;47.15
11395;BME280;5753;54.402;10.220;2022-09-17T05:34:16;100346.81;;;20.62;45.80
11395;BME280;5753;54.402;10.220;2022-09-17T05:36:42;100337.75;;;19.61;48.09
11395;BME280;5753;54.402;10.220;2022-09-17T05:39:08;100348.00;;;19.36;49.12
11395;BME280;5753;54.402;10.220;2022-09-17T05:41:34;100356.31;;;19.19;49.20
11395;BME280;5753;54.402;10.220;2022-09-17T05:44:01;100352.59;;;18.61;50.54
11395;BME280;5753;54.402;10.220;2022-09-17T05:46:27;100356.25;;;20.12;46.92
11395;BME280;5753;54.402;10.220;2022-09-17T05:48:55;100349.56;;;19.74;48.03
11395;BME280;5753;54.402;10.220;2022-09-17T05:51:22;100360.66;;;19.20;49.37
11395;BME280;5753;54.402;10.220;2022-09-17T05:53:48;100353.19;;;18.72;49.54
11395;BME280;5753;54.402;10.220;2022-09-17T05:56:14;100353.97;;;19.41;48.74
11395;BME280;5753;54.402;10.220;2022-09-17T05:58:40;100352.78;;;18.87;49.78
11395;BME280;5753;54.402;10.220;2022-09-17T06:01:06;100355.97;;;19.31;49.68
11395;BME280;5753;54.402;10.220;2022-09-17T06:03:32;100347.25;;;19.63;47.88
11395;BME280;5753;54.402;10.220;2022-09-17T06:05:59;100356.69;;;19.98;47.41
11395;BME280;5753;54.402;10.220;2022-09-17T06:08:27;100363.44;;;19.14;49.16
11395;BME280;5753;54.402;10.220;2022-09-17T06:10:54;100361.28;;;20.18;47.11
11395;BME280;5753;54.402;10.220;2022-09-17T06:13:20;100358.47;;;19.67;48.09
11395;BME280;5753;54.402;10.220;2022-09-17T06:15:53;100368.22;;;19.29;49.69
11395;BME280;5753;54.402;10.220;2022-09-17T06:18:19;100366.09;;;19.74;48.54
11395;BME280;5753;54.402;10.220;2022-09-17T06:21:02;100369.28;;;20.13;46.58
11395;BME280;5753;54.402;10.220;2022-09-17T06:23:31;100364.34;;;20.04;47.76
11395;BME280;5753;54.402;10.220;2022-09-17T06:26:00;100370.84;;;19.62;48.34
11395;BME280;5753;54.402;10.220;2022-09-17T06:28:28;100368.78;;;20.29;47.36
11395;BME280;5753;54.402;10.220;2022-09-17T06:30:58;100377.72;;;19.64;48.21
11395;BME280;5753;54.402;10.220;2022-09-17T06:33:24;100370.06;;;19.58;49.39
11395;BME280;5753;54.402;10.220;2022-09-17T06:36:03;100375.44;;;19.83;48.47
11395;BME280;5753;54.402;10.220;2022-09-17T06:38:31;100364.31;;;20.60;46.19
11395;BME280;5753;54.402;10.220;2022-09-17T06:40:58;100376.91;;;20.75;45.67
11395;BME280;5753;54.402;10.220;2022-09-17T06:43:25;100379.09;;;19.77;48.01
11395;BME280;5753;54.402;10.220;2022-09-17T06:48:18;100387.84;;;20.06;48.11
11395;BME280;5753;54.402;10.220;2022-09-17T06:50:44;100376.03;;;19.93;47.25
11395;BME280;5753;54.402;10.220;2022-09-17T06:53:10;100382.53;;;20.37;46.69
11395;BME280;5753;54.402;10.220;2022-09-17T06:55:36;100389.19;;;19.60;48.46
11395;BME280;5753;54.402;10.220;2022-09-17T06:58:02;100391.25;;;20.08;47.62
11395;BME280;5753;54.402;10.220;2022-09-17T07:00:28;100382.75;;;20.29;47.33
11395;BME280;5753;54.402;10.220;2022-09-17T07:02:59;100387.00;;;20.61;47.53
11395;BME280;5753;54.402;10.220;2022-09-17T07:05:26;100384.03;;;19.88;48.66
11395;BME280;5753;54.402;10.220;2022-09-17T07:07:53;100388.19;;;20.51;47.45
11395;BME280;5753;54.402;10.220;2022-09-17T07:10:20;100383.63;;;21.09;46.74
11395;BME280;5753;54.402;10.220;2022-09-17T07:12:48;100389.72;;;20.85;46.48
11395;BME280;5753;54.402;10.220;2022-09-17T07:15:14;100385.22;;;21.13;46.41
11395;BME280;5753;54.402;10.220;2022-09-17T07:17:41;100391.53;;;20.83;47.36
11395;BME280;5753;54.402;10.220;2022-09-17T07:20:10;100394.81;;;22.11;44.16
11395;BME280;5753;54.402;10.220;2022-09-17T07:22:36;100393.66;;;22.18;43.84
11395;BME280;5753;54.402;10.220;2022-09-17T07:25:02;100393.50;;;20.50;47.14
11395;BME280;5753;54.402;10.220;2022-09-17T07:27:30;100390.16;;;21.22;46.54
11395;BME280;5753;54.402;10.220;2022-09-17T07:29:56;100393.66;;;21.71;44.50
11395;BME280;5753;54.402;10.220;2022-09-17T07:32:22;100388.16;;;21.79;44.91
11395;BME280;5753;54.402;10.220;2022-09-17T07:34:49;100387.97;;;22.94;43.47
11395;BME280;5753;54.402;10.220;2022-09-17T07:37:16;100388.69;;;23.96;41.05
11395;BME280;5753;54.402;10.220;2022-09-17T07:39:42;100385.19;;;23.17;42.75
11395;BME280;5753;54.402;10.220;2022-09-17T07:42:09;100381.38;;;23.65;41.57
11395;BME280;5753;54.402;10.220;2022-09-17T07:44:35;100393.41;;;22.68;43.74
11395;BME280;5753;54.402;10.220;2022-09-17T07:47:02;100381.25;;;23.28;41.87
11395;BME280;5753;54.402;10.220;2022-09-17T07:49:28;100387.94;;;22.30;43.49
11395;BME280;5753;54.402;10.220;2022-09-17T07:51:54;100381.59;;;23.79;41.37
11395;BME280;5753;54.402;10.220;2022-09-17T07:54:20;100389.00;;;22.68;43.34
11395;BME280;5753;54.402;10.220;2022-09-17T07:56:46;100387.66;;;22.58;44.61
11395;BME280;5753;54.402;10.220;2022-09-17T07:59:12;100389.69;;;23.94;41.22
11395;BME280;5753;54.402;10.220;2022-09-17T08:01:38;100381.97;;;22.26;43.96
11395;BME280;5753;54.402;10.220;2022-09-17T08:04:05;100385.06;;;23.00;42.80
11395;BME280;5753;54.402;10.220;2022-09-17T08:06:36;100381.06;;;21.81;45.17
11395;BME280;5753;54.402;10.220;2022-09-17T08:09:02;100374.66;;;23.38;41.63
11395;BME280;5753;54.402;10.220;2022-09-17T08:11:29;100379.16;;;22.31;43.48
11395;BME280;5753;54.402;10.220;2022-09-17T08:13:56;100384.16;;;23.01;42.60
11395;BME280;5753;54.402;10.220;2022-09-17T08:16:23;100372.25;;;24.99;39.79
11395;BME280;5753;54.402;10.220;2022-09-17T08:18:54;100372.06;;;24.51;39.91
11395;BME280;5753;54.402;10.220;2022-09-17T08:21:20;100369.91;;;23.66;41.44
11395;BME280;5753;54.402;10.220;2022-09-17T08:23:46;100375.47;;;23.19;42.54
11395;BME280;5753;54.402;10.220;2022-09-17T08:26:18;100379.72;;;25.08;39.42
11395;BME280;5753;54.402;10.220;2022-09-17T08:28:47;100368.63;;;23.15;42.07
11395;BME280;5753;54.402;10.220;2022-09-17T08:31:18;100372.13;;;24.13;40.97
11395;BME280;5753;54.402;10.220;2022-09-17T08:33:45;100364.69;;;24.21;40.24
11395;BME280;5753;54.402;10.220;2022-09-17T08:36:13;100358.06;;;24.67;40.02
11395;BME280;5753;54.402;10.220;2022-09-17T08:38:40;100374.41;;;24.74;39.52
11395;BME280;5753;54.402;10.220;2022-09-17T08:41:20;100372.34;;;25.97;38.21
11395;BME280;5753;54.402;10.220;2022-09-17T08:44:10;100367.19;;;24.77;39.91
11395;BME280;5753;54.402;10.220;2022-09-17T08:46:57;100370.22;;;22.13;44.44
11395;BME280;5753;54.402;10.220;2022-09-17T08:49:48;100359.75;;;25.20;39.14
11395;BME280;5753;54.402;10.220;2022-09-17T09:00:12;100366.91;;;26.16;36.90
11395;BME280;5753;54.402;10.220;2022-09-17T09:05:39;100371.16;;;25.71;36.75
11395;BME280;5753;54.402;10.220;2022-09-17T09:08:21;100379.06;;;25.54;37.79
11395;BME280;5753;54.402;10.220;2022-09-17T09:10:57;100372.97;;;26.02;36.08
11395;BME280;5753;54.402;10.220;2022-09-17T09:13:38;100378.84;;;26.39;35.75
11395;BME280;5753;54.402;10.220;2022-09-17T09:16:29;100382.00;;;25.65;37.67
11395;BME280;5753;54.402;10.220;2022-09-17T09:22:27;100393.66;;;26.57;35.28
11395;BME280;5753;54.402;10.220;2022-09-17T09:27:47;100385.94;;;27.85;33.55
11395;BME280;5753;54.402;10.220;2022-09-17T09:30:17;100378.31;;;27.80;33.98
11395;BME280;5753;54.402;10.220;2022-09-17T09:33:03;100385.28;;;26.64;35.98
11395;BME280;5753;54.402;10.220;2022-09-17T09:35:33;100383.28;;;26.54;35.66
11395;BME280;5753;54.402;10.220;2022-09-17T09:38:14;100385.94;;;27.42;34.66
11395;BME280;5753;54.402;10.220;2022-09-17T09:40:56;100376.34;;;26.81;35.12
11395;BME280;5753;54.402;10.220;2022-09-17T09:43:35;100375.19;;;27.45;34.74
11395;BME280;5753;54.402;10.220;2022-09-17T09:57:44;100371.00;;;29.57;32.00
11395;BME280;5753;54.402;10.220;2022-09-17T10:02:59;100377.69;;;29.99;30.69
11395;BME280;5753;54.402;10.220;2022-09-17T10:05:27;100378.38;;;27.36;32.73
11395;BME280;5753;54.402;10.220;2022-09-17T10:07:53;100372.16;;;27.51;33.13
11395;BME280;5753;54.402;10.220;2022-09-17T10:10:19;100370.81;;;27.87;32.37
11395;BME280;5753;54.402;10.220;2022-09-17T10:12:45;100370.06;;;27.56;32.62
11395;BME280;5753;54.402;10.220;2022-09-17T10:15:28;100373.09;;;27.93;34.18
11395;BME280;5753;54.402;10.220;2022-09-17T10:18:27;100374.94;;;30.00;31.45
11395;BME280;5753;54.402;10.220;2022-09-17T10:20:58;100375.06;;;28.45;33.71
11395;BME280;5753;54.402;10.220;2022-09-17T10:23:29;100380.66;;;29.58;31.12
11395;BME280;5753;54.402;10.220;2022-09-17T10:25:58;100374.78;;;29.27;32.11
11395;BME280;5753;54.402;10.220;2022-09-17T10:28:39;100372.69;;;29.45;31.61
11395;BME280;5753;54.402;10.220;2022-09-17T10:31:09;100373.59;;;29.82;30.39
11395;BME280;5753;54.402;10.220;2022-09-17T10:34:02;100375.25;;;29.47;31.00
11395;BME280;5753;54.402;10.220;2022-09-17T10:36:42;100375.09;;;30.70;29.34
11395;BME280;5753;54.402;10.220;2022-09-17T10:39:35;100372.84;;;31.23;28.23
11395;BME280;5753;54.402;10.220;2022-09-17T10:42:16;100376.38;;;29.30;32.04
11395;BME280;5753;54.402;10.220;2022-09-17T10:44:51;100373.06;;;28.07;32.89
11395;BME280;5753;54.402;10.220;2022-09-17T10:47:35;100371.41;;;27.92;32.56
11395;BME280;5753;54.402;10.220;2022-09-17T10:50:05;100380.53;;;27.29;33.70
11395;BME280;5753;54.402;10.220;2022-09-17T10:52:40;100378.00;;;27.28;33.59
11395;BME280;5753;54.402;10.220;2022-09-17T10:55:26;100378.94;;;26.53;33.79
11395;BME280;5753;54.402;10.220;2022-09-17T11:09:41;100364.41;;;27.63;34.22
11395;BME280;5753;54.402;10.220;2022-09-17T11:34:31;100366.63;;;32.55;27.02
11395;BME280;5753;54.402;10.220;2022-09-17T11:36:57;100360.41;;;32.34;26.65
11395;BME280;5753;54.402;10.220;2022-09-17T11:39:46;100361.56;;;31.20;27.32
11395;BME280;5753;54.402;10.220;2022-09-17T11:43:02;100359.31;;;31.71;27.47
11395;BME280;5753;54.402;10.220;2022-09-17T11:45:16;100369.06;;;32.27;26.48
11395;BME280;5753;54.402;10.220;2022-09-17T11:48:02;100372.38;;;31.85;27.45
11395;BME280;5753;54.402;10.220;2022-09-17T11:55:52;100377.25;;;33.50;25.57
11395;BME280;5753;54.402;10.220;2022-09-17T11:58:39;100376.56;;;32.33;26.50
11395;BME280;5753;54.402;10.220;2022-09-17T12:06:42;100386.53;;;30.36;28.25
11395;BME280;5753;54.402;10.220;2022-09-17T12:09:26;100391.03;;;29.73;28.65
11395;BME280;5753;54.402;10.220;2022-09-17T12:14:23;100400.34;;;27.52;35.50
11395;BME280;5753;54.402;10.220;2022-09-17T12:16:56;100406.91;;;24.20;41.29
11395;BME280;5753;54.402;10.220;2022-09-17T12:19:32;100392.66;;;25.30;39.75
11395;BME280;5753;54.402;10.220;2022-09-17T12:22:12;100400.91;;;26.06;38.71
11395;BME280;5753;54.402;10.220;2022-09-17T12:24:41;100401.41;;;24.79;40.98
11395;BME280;5753;54.402;10.220;2022-09-17T12:27:35;100410.75;;;24.12;42.45
11395;BME280;5753;54.402;10.220;2022-09-17T12:30:23;100385.75;;;24.76;40.01
11395;BME280;5753;54.402;10.220;2022-09-17T12:33:21;100406.22;;;26.06;37.46
11395;BME280;5753;54.402;10.220;2022-09-17T12:38:39;100405.00;;;26.59;35.77
11395;BME280;5753;54.402;10.220;2022-09-17T12:49:31;100412.19;;;24.38;40.12
11395;BME280;5753;54.402;10.220;2022-09-17T12:52:02;100414.13;;;24.52;40.49
11395;BME280;5753;54.402;10.220;2022-09-17T12:57:17;100422.19;;;23.93;41.11
11395;BME280;5753;54.402;10.220;2022-09-17T13:00:12;100426.88;;;25.15;38.98
11395;BME280;5753;54.402;10.220;2022-09-17T13:02:46;100425.00;;;25.84;37.81
11395;BME280;5753;54.402;10.220;2022-09-17T13:05:39;100420.78;;;24.78;39.25
11395;BME280;5753;54.402;10.220;2022-09-17T13:08:18;100420.41;;;24.49;40.06
11395;BME280;5753;54.402;10.220;2022-09-17T13:19:59;100419.19;;;27.62;35.13
11395;BME280;5753;54.402;10.220;2022-09-17T13:22:24;100421.94;;;27.31;35.85
11395;BME280;5753;54.402;10.220;2022-09-17T13:25:10;100429.09;;;27.44;35.63
11395;BME280;5753;54.402;10.220;2022-09-17T13:27:37;100428.28;;;27.28;36.23
11395;BME280;5753;54.402;10.220;2022-09-17T13:30:24;100434.28;;;28.17;34.28
11395;BME280;5753;54.402;10.220;2022-09-17T13:32:51;100428.25;;;27.86;35.37
11395;BME280;5753;54.402;10.220;2022-09-17T13:37:56;100429.09;;;27.87;35.05
11395;BME280;5753;54.402;10.220;2022-09-17T13:40:26;100424.66;;;27.73;35.42
11395;BME280;5753;54.402;10.220;2022-09-17T13:45:28;100427.66;;;28.10;34.61
11395;BME280;5753;54.402;10.220;2022-09-17T13:48:08;100446.03;;;27.84;35.14
11395;BME280;5753;54.402;10.220;2022-09-17T13:50:43;100443.00;;;28.05;35.60
11395;BME280;5753;54.402;10.220;2022-09-17T13:55:53;100458.63;;;28.09;35.00
11395;BME280;5753;54.402;10.220;2022-09-17T13:58:29;100461.81;;;28.70;33.36
11395;BME280;5753;54.402;10.220;2022-09-17T14:21:59;100466.47;;;34.60;25.71
11395;BME280;5753;54.402;10.220;2022-09-17T14:30:13;100460.69;;;29.13;31.95
11395;BME280;5753;54.402;10.220;2022-09-17T14:33:12;100445.44;;;28.22;33.75
11395;BME280;5753;54.402;10.220;2022-09-17T14:35:59;100442.44;;;27.85;33.68
11395;BME280;5753;54.402;10.220;2022-09-17T14:38:32;100440.13;;;26.14;36.05
11395;BME280;5753;54.402;10.220;2022-09-17T14:46:23;100463.63;;;25.00;39.70
11395;BME280;5753;54.402;10.220;2022-09-17T14:48:50;100483.81;;;24.28;39.54
11395;BME280;5753;54.402;10.220;2022-09-17T14:54:06;100480.09;;;23.74;42.71
11395;BME280;5753;54.402;10.220;2022-09-17T14:56:39;100501.81;;;23.79;43.46
11395;BME280;5753;54.402;10.220;2022-09-17T15:01:47;100530.78;;;21.76;49.84
11395;BME280;5753;54.402;10.220;2022-09-17T15:06:40;100543.41;;;22.15;51.25
11395;BME280;5753;54.402;10.220;2022-09-17T15:09:36;100546.81;;;20.88;47.39
11395;BME280;5753;54.402;10.220;2022-09-17T15:12:04;100567.97;;;19.19;50.65
11395;BME280;5753;54.402;10.220;2022-09-17T15:14:33;100560.50;;;19.04;51.89
11395;BME280;5753;54.402;10.220;2022-09-17T15:17:02;100569.91;;;19.46;50.83
11395;BME280;5753;54.402;10.220;2022-09-17T15:19:33;100571.50;;;19.86;51.36
11395;BME280;5753;54.402;10.220;2022-09-17T15:22:28;100588.06;;;19.88;51.05
11395;BME280;5753;54.402;10.220;2022-09-17T15:25:04;100576.91;;;18.70;53.52
11395;BME280;5753;54.402;10.220;2022-09-17T15:27:41;100576.84;;;19.47;50.41
11395;BME280;5753;54.402;10.220;2022-09-17T15:30:13;100578.81;;;18.61;54.29
11395;BME280;5753;54.402;10.220;2022-09-17T15:32:46;100583.28;;;19.70;51.90
11395;BME280;5753;54.402;10.220;2022-09-17T15:37:50;100595.47;;;19.34;52.78
11395;BME280;5753;54.402;10.220;2022-09-17T15:40:49;100592.66;;;20.11;51.15
11395;BME280;5753;54.402;10.220;2022-09-17T15:43:31;100595.56;;;19.66;52.75
11395;BME280;5753;54.402;10.220;2022-09-17T15:46:27;100598.13;;;20.33;51.66
11395;BME280;5753;54.402;10.220;2022-09-17T15:49:01;100586.41;;;19.13;53.40
11395;BME280;5753;54.402;10.220;2022-09-17T15:51:33;100589.91;;;19.83;50.54
11395;BME280;5753;54.402;10.220;2022-09-17T15:54:02;100574.78;;;20.58;49.59
11395;BME280;5753;54.402;10.220;2022-09-17T15:56:39;100584.66;;;21.86;46.19
11395;BME280;5753;54.402;10.220;2022-09-17T15:59:32;100586.09;;;22.45;45.25
11395;BME280;5753;54.402;10.220;2022-09-17T16:02:00;100584.25;;;21.47;46.73
11395;BME280;5753;54.402;10.220;2022-09-17T16:04:31;100583.84;;;22.34;45.74
11395;BME280;5753;54.402;10.220;2022-09-17T16:09:55;100578.25;;;21.68;46.70
11395;BME280;5753;54.402;10.220;2022-09-17T16:12:25;100576.56;;;21.92;45.73
11395;BME280;5753;54.402;10.220;2022-09-17T16:14:56;100588.09;;;21.62;46.36
11395;BME280;5753;54.402;10.220;2022-09-17T16:19:53;100580.94;;;19.93;50.20
11395;BME280;5753;54.402;10.220;2022-09-17T16:22:20;100594.97;;;20.54;49.44
11395;BME280;5753;54.402;10.220;2022-09-17T16:24:47;100586.38;;;21.36;47.81
11395;BME280;5753;54.402;10.220;2022-09-17T16:27:25;100583.84;;;22.34;45.92
11395;BME280;5753;54.402;10.220;2022-09-17T16:30:02;100594.91;;;22.19;46.15
11395;BME280;5753;54.402;10.220;2022-09-17T16:32:29;100596.41;;;20.64;48.93
11395;BME280;5753;54.402;10.220;2022-09-17T16:34:55;100591.34;;;21.44;47.48
11395;BME280;5753;54.402;10.220;2022-09-17T16:37:22;100588.47;;;21.51;47.74